Time;durP1;ratioP1;P1;durP2;ratioP2;P2;SDS_P1;SDS_P2;PMS_P1;PMS_P2;Temp;Humidity;BMP_temperature;BMP_pressure;BME280_temperature;BME280_humidity;BME280_pressure;Samples;Min_cycle;Max_cycle;Signal;HPM_P1;HPM_P2
2024/02/13 00:00:51;;;;;;;4.97;0.65;;;19.40;40.90;;;;;;8429615;28;20090;-54
2024/02/13 00:04:52;;;;;;;9.20;1.52;;;19.20;41.50;;;;;;8430292;28;20028;-55
2024/02/13 00:08:52;;;;;;;7.47;1.05;;;19.30;40.90;;;;;;8430115;28;20047;-52
2024/02/13 00:12:53;;;;;;;2.03;0.47;;;19.30;40.90;;;;;;8395348;28;20056;-55
2024/02/13 00:16:54;;;;;;;11.23;1.05;;;19.40;40.50;;;;;;8429856;28;20024;-56
2024/02/13 00:20:57;;;;;;;4.57;0.70;;;19.50;40.30;;;;;;8429754;28;20055;-53
2024/02/13 00:24:58;;;;;;;7.80;0.88;;;19.40;40.20;;;;;;8430009;28;20040;-56
2024/02/13 00:29:00;;;;;;;1.60;0.67;;;19.40;40.20;;;;;;8430046;28;20039;-57
2024/02/13 00:33:00;;;;;;;5.40;1.00;;;19.40;40.20;;;;;;8429372;28;20313;-56
2024/02/13 00:37:01;;;;;;;5.07;0.67;;;19.40;40.10;;;;;;8429300;28;20492;-56
2024/02/13 00:41:04;;;;;;;5.53;0.60;;;19.40;40.00;;;;;;8429308;28;20293;-57
2024/02/13 00:45:07;;;;;;;6.57;0.88;;;19.30;40.10;;;;;;8429109;28;20063;-55
2024/02/13 00:49:07;;;;;;;0.90;0.47;;;19.30;41.20;;;;;;8428866;28;20038;-56
2024/02/13 00:53:10;;;;;;;1.33;0.60;;;19.20;41.50;;;;;;8428733;28;20028;-56
2024/02/13 00:57:11;;;;;;;2.25;0.80;;;19.20;40.90;;;;;;8410543;28;20321;-55
2024/02/13 01:01:12;;;;;;;3.90;0.70;;;19.20;40.70;;;;;;8429035;28;20036;-55
2024/02/13 01:05:13;;;;;;;5.50;1.00;;;19.20;40.50;;;;;;8428401;28;20103;-57
2024/02/13 01:09:14;;;;;;;1.20;0.65;;;19.20;40.40;;;;;;8428250;28;20047;-56
2024/02/13 01:13:15;;;;;;;1.95;1.00;;;19.20;40.30;;;;;;8427847;28;20056;-55
2024/02/13 01:17:16;;;;;;;2.10;0.80;;;19.20;40.20;;;;;;8428050;28;20024;-56
2024/02/13 01:21:18;;;;;;;1.75;0.90;;;19.20;40.10;;;;;;8428150;28;20393;-56
2024/02/13 01:25:19;;;;;;;2.80;0.85;;;19.20;40.10;;;;;;8427747;28;20032;-57
2024/02/13 01:29:20;;;;;;;2.42;0.80;;;19.20;40.00;;;;;;8427744;28;20024;-56
2024/02/13 01:33:22;;;;;;;3.75;0.70;;;19.20;40.40;;;;;;8428059;28;20458;-54
2024/02/13 01:37:22;;;;;;;4.47;0.95;;;19.10;41.20;;;;;;8427357;28;20036;-55
2024/02/13 01:41:24;;;;;;;0.98;0.57;;;19.00;41.40;;;;;;8427153;28;20036;-56
2024/02/13 01:45:24;;;;;;;;;;;19.10;40.90;;;;;;8427785;28;20031;-55
2024/02/13 01:49:28;;;;;;;0.80;0.80;;;19.10;40.60;;;;;;8427069;28;20018;-56
2024/02/13 01:53:29;;;;;;;1.17;0.57;;;19.10;40.40;;;;;;8426905;28;20039;-57
2024/02/13 01:57:35;;;;;;;1.77;0.63;;;19.10;40.20;;;;;;8426789;28;20032;-56
2024/02/13 02:01:36;;;;;;;1.40;0.60;;;19.10;40.10;;;;;;8426577;28;20060;-56
2024/02/13 02:05:37;;;;;;;1.45;0.63;;;19.10;40.00;;;;;;8408810;28;20032;-57
2024/02/13 02:09:38;;;;;;;2.78;0.75;;;19.10;40.00;;;;;;8427250;28;20068;-56
2024/02/13 02:13:39;;;;;;;1.25;0.80;;;19.10;39.90;;;;;;8426254;28;20082;-57
2024/02/13 02:17:39;;;;;;;3.22;0.80;;;19.10;39.80;;;;;;8426517;28;20438;-57
2024/02/13 02:21:40;;;;;;;1.80;0.65;;;19.10;40.40;;;;;;8425903;28;20024;-54
2024/02/13 02:25:41;;;;;;;4.03;0.90;;;19.10;41.20;;;;;;8426803;28;20112;-55
2024/02/13 02:29:41;;;;;;;5.50;0.77;;;19.00;41.20;;;;;;8392897;28;20494;-57
2024/02/13 02:33:43;;;;;;;2.25;1.00;;;19.00;40.70;;;;;;8392643;28;20032;-57
2024/02/13 02:37:48;;;;;;;1.63;1.00;;;19.00;40.50;;;;;;8392642;28;20115;-54
2024/02/13 02:41:52;;;;;;;4.60;0.90;;;19.10;40.30;;;;;;8392683;28;20036;-58
2024/02/13 02:45:52;;;;;;;2.65;0.80;;;19.00;40.10;;;;;;8392335;28;20071;-57
2024/02/13 02:49:54;;;;;;;1.20;0.70;;;19.10;40.00;;;;;;8392598;28;20036;-55
2024/02/13 02:53:54;;;;;;;1.30;0.60;;;19.10;39.90;;;;;;8392190;28;20870;-56
2024/02/13 02:57:56;;;;;;;1.38;0.75;;;19.10;39.90;;;;;;8411206;28;20112;-57
2024/02/13 03:01:57;;;;;;;3.00;0.77;;;19.10;39.80;;;;;;8425610;28;20115;-55
2024/02/13 03:05:58;;;;;;;1.02;0.70;;;19.10;39.80;;;;;;8407473;28;20044;-57
2024/02/13 03:10:00;;;;;;;3.25;0.98;;;19.10;40.50;;;;;;8425684;28;20032;-57
2024/02/13 03:14:01;;;;;;;1.55;0.73;;;19.00;41.10;;;;;;8425490;28;20083;-57
2024/02/13 03:18:03;;;;;;;1.55;0.60;;;18.90;41.00;;;;;;8425357;28;20020;-57
2024/02/13 03:22:04;;;;;;;1.30;0.60;;;19.00;40.60;;;;;;8425685;28;20036;-54
2024/02/13 03:26:05;;;;;;;1.75;0.50;;;19.00;40.40;;;;;;8407420;28;20036;-56
2024/02/13 03:30:07;;;;;;;1.88;0.70;;;19.00;40.20;;;;;;8425100;28;20042;-57
2024/02/13 03:34:08;;;;;;;2.65;0.65;;;19.00;40.10;;;;;;8427041;28;20024;-58
2024/02/13 03:38:09;;;;;;;1.23;0.70;;;19.10;40.00;;;;;;8431249;28;20056;-55
2024/02/13 03:42:10;;;;;;;1.90;0.50;;;19.00;39.80;;;;;;8431068;28;20369;-57
2024/02/13 03:46:11;;;;;;;1.15;0.57;;;19.10;39.80;;;;;;8413053;28;20097;-55
2024/02/13 03:50:12;;;;;;;1.80;0.80;;;19.10;39.70;;;;;;8412816;28;20517;-57
2024/02/13 03:54:13;;;;;;;2.05;0.90;;;19.10;39.70;;;;;;8430876;28;20405;-55
2024/02/13 03:58:15;;;;;;;2.63;0.75;;;19.00;40.40;;;;;;8430608;28;20037;-55
2024/02/13 04:02:16;;;;;;;1.10;0.70;;;19.00;41.00;;;;;;8430188;28;20168;-54
2024/02/13 04:06:16;;;;;;;1.73;0.60;;;18.90;40.80;;;;;;8430461;28;20057;-55
2024/02/13 04:10:18;;;;;;;2.50;0.50;;;18.90;40.40;;;;;;8430563;28;20488;-55
2024/02/13 04:14:18;;;;;;;1.23;0.70;;;19.00;40.20;;;;;;8429691;28;20048;-56
2024/02/13 04:18:19;;;;;;;1.17;0.45;;;19.00;40.10;;;;;;8430048;28;20024;-56
2024/02/13 04:22:20;;;;;;;0.55;0.50;;;19.00;39.90;;;;;;8411669;28;20039;-55
2024/02/13 04:26:22;;;;;;;1.85;0.50;;;19.00;39.80;;;;;;8411481;28;20295;-55
2024/02/13 04:30:41;;;;;;;1.83;0.70;;;19.00;39.70;;;;;;8429733;28;20039;-54
2024/02/13 04:34:42;;;;;;;1.23;0.60;;;19.00;39.60;;;;;;8429942;28;20051;-54
2024/02/13 04:38:43;;;;;;;1.87;0.60;;;19.00;39.60;;;;;;8429253;28;20036;-56
2024/02/13 04:42:43;;;;;;;0.60;0.60;;;19.00;39.50;;;;;;8429024;28;20290;-56
2024/02/13 04:46:44;;;;;;;0.75;0.60;;;19.00;40.40;;;;;;8428764;28;20043;-56
2024/02/13 04:50:45;;;;;;;1.13;0.50;;;18.90;41.00;;;;;;8428743;28;20027;-56
2024/02/13 04:54:46;;;;;;;1.08;0.70;;;18.90;40.70;;;;;;8428708;28;20078;-56
2024/02/13 04:58:47;;;;;;;0.50;0.50;;;18.90;40.40;;;;;;8428447;28;20032;-56
2024/02/13 05:02:50;;;;;;;1.23;0.73;;;18.90;40.20;;;;;;8428391;28;20452;-56
2024/02/13 05:11:09;;;;;;;1.30;0.52;;;18.90;39.80;;;;;;8412642;28;20052;-56
2024/02/13 05:15:10;;;;;;;0.50;0.50;;;19.00;39.80;;;;;;8428500;28;20024;-56
2024/02/13 05:19:12;;;;;;;0.95;0.50;;;19.00;39.70;;;;;;8427833;28;20028;-55
2024/02/13 05:23:14;;;;;;;0.82;0.50;;;19.00;39.50;;;;;;8427937;28;20115;-56
2024/02/13 05:27:15;;;;;;;0.88;0.85;;;19.00;39.50;;;;;;8409762;28;20068;-56
2024/02/13 05:31:17;;;;;;;0.55;0.43;;;19.10;39.40;;;;;;8427655;28;20036;-54
2024/02/13 05:35:18;;;;;;;0.50;0.50;;;19.00;40.30;;;;;;8427559;28;20036;-57
2024/02/13 05:39:19;;;;;;;1.58;0.65;;;19.00;40.80;;;;;;8408951;28;20028;-57
2024/02/13 05:43:20;;;;;;;1.25;0.60;;;19.10;40.20;;;;;;8427354;28;20107;-56
2024/02/13 05:47:23;;;;;;;0.65;0.52;;;19.10;39.80;;;;;;8427189;28;20440;-56
2024/02/13 05:51:23;;;;;;;0.85;0.50;;;19.20;39.60;;;;;;8426829;28;20032;-57
2024/02/13 05:55:24;;;;;;;1.00;0.50;;;19.20;39.30;;;;;;8408913;28;20064;-56
2024/02/13 05:59:29;;;;;;;0.70;0.50;;;19.30;39.20;;;;;;8426870;28;20290;-54
2024/02/13 06:03:32;;;;;;;0.93;0.73;;;19.30;39.20;;;;;;8426576;28;20286;-53
2024/02/13 06:07:33;;;;;;;0.60;0.52;;;19.30;39.10;;;;;;8426571;28;20168;-54
2024/02/13 06:11:36;;;;;;;2.53;0.75;;;19.30;39.00;;;;;;8426253;28;20040;-54
2024/02/13 06:15:37;;;;;;;0.80;0.45;;;19.30;38.90;;;;;;8426527;28;20107;-53
2024/02/13 06:19:37;;;;;;;0.60;0.50;;;19.30;39.10;;;;;;8426558;28;20032;-51
2024/02/13 06:23:40;;;;;;;0.98;0.70;;;19.20;40.00;;;;;;8426307;28;20036;-54
2024/02/13 06:27:41;;;;;;;0.47;0.30;;;19.20;40.30;;;;;;8426556;28;20036;-55
2024/02/13 06:31:42;;;;;;;0.57;0.50;;;19.20;39.80;;;;;;8426028;28;20043;-55
2024/02/13 06:35:43;;;;;;;0.73;0.40;;;19.30;39.50;;;;;;8426157;28;20051;-54
2024/02/13 06:39:43;;;;;;;0.77;0.50;;;19.30;39.30;;;;;;8426154;28;20512;-54
2024/02/13 06:43:45;;;;;;;1.33;0.63;;;19.30;39.20;;;;;;8426121;28;20418;-54
2024/02/13 06:47:45;;;;;;;1.00;0.50;;;19.30;39.10;;;;;;8426043;28;20405;-53
2024/02/13 06:51:46;;;;;;;0.87;0.60;;;19.30;39.00;;;;;;8425937;28;20036;-51
2024/02/13 06:55:47;;;;;;;1.00;0.60;;;19.30;38.90;;;;;;8425664;28;20340;-54
2024/02/13 06:59:48;;;;;;;0.80;0.60;;;19.30;38.90;;;;;;8426113;28;20274;-55
2024/02/13 07:03:48;;;;;;;;;;;19.30;38.80;;;;;;8407938;28;20047;-54
2024/02/13 07:07:49;;;;;;;1.13;0.70;;;19.30;39.00;;;;;;8426995;28;19958;-56
2024/02/13 07:11:50;;;;;;;0.80;0.60;;;19.20;39.90;;;;;;8432085;28;20048;-56
2024/02/13 07:15:51;;;;;;;0.65;0.50;;;19.20;40.30;;;;;;8432072;28;20036;-55
2024/02/13 07:19:53;;;;;;;0.88;0.50;;;19.20;39.70;;;;;;8432037;28;20658;-57
2024/02/13 07:23:54;;;;;;;;;;;19.20;39.40;;;;;;8432912;28;20485;-54
2024/02/13 07:27:57;;;;;;;0.40;0.35;;;19.30;39.20;;;;;;8431565;28;20340;-56
2024/02/13 07:32:00;;;;;;;0.55;0.55;;;19.30;39.10;;;;;;8431153;28;20024;-56
2024/02/13 07:36:01;;;;;;;0.50;0.50;;;19.30;38.90;;;;;;8431513;28;20036;-57
2024/02/13 07:40:02;;;;;;;0.90;0.40;;;19.30;38.80;;;;;;8431227;28;20122;-55
2024/02/13 07:44:03;;;;;;;0.52;0.50;;;19.40;38.90;;;;;;8430926;28;20051;-55
2024/02/13 07:48:04;;;;;;;;;;;19.30;38.70;;;;;;8431452;28;20036;-55
2024/02/13 07:52:05;;;;;;;0.43;0.43;;;19.30;38.70;;;;;;8430662;28;19919;-54
2024/02/13 07:56:06;;;;;;;0.80;0.63;;;19.30;39.00;;;;;;8430765;28;20281;-54
2024/02/13 08:00:08;;;;;;;1.00;0.68;;;19.30;39.90;;;;;;8430592;28;20487;-56
2024/02/13 08:04:09;;;;;;;0.57;0.52;;;19.20;40.00;;;;;;8430381;28;20055;-56
2024/02/13 08:08:10;;;;;;;0.60;0.47;;;19.20;39.50;;;;;;8430747;28;20040;-55
2024/02/13 08:12:12;;;;;;;0.50;0.50;;;19.30;39.20;;;;;;8430097;28;20048;-56
2024/02/13 08:16:14;;;;;;;0.50;0.40;;;19.30;39.00;;;;;;8429805;28;20032;-55
2024/02/13 08:20:14;;;;;;;0.73;0.50;;;19.30;38.90;;;;;;8429203;28;20032;-53
2024/02/13 08:24:15;;;;;;;0.73;0.50;;;19.30;38.80;;;;;;8429974;28;20032;-54
2024/02/13 08:28:16;;;;;;;0.45;0.45;;;19.30;38.80;;;;;;8429358;28;20389;-52
2024/02/13 08:32:21;;;;;;;;;;;19.40;38.80;;;;;;8430022;28;20812;-55
2024/02/13 08:36:24;;;;;;;0.43;0.43;;;19.40;38.60;;;;;;8411278;28;20397;-53
2024/02/13 08:40:25;;;;;;;0.63;0.40;;;19.40;38.60;;;;;;8429274;28;20075;-54
2024/02/13 08:44:25;;;;;;;0.93;0.50;;;19.40;39.20;;;;;;8429073;28;20031;-54
2024/02/13 08:48:26;;;;;;;1.00;0.50;;;19.30;40.00;;;;;;8428857;28;20301;-54
2024/02/13 08:52:27;;;;;;;0.32;0.32;;;19.20;39.90;;;;;;8428785;28;20294;-54
2024/02/13 08:56:27;;;;;;;1.92;0.47;;;19.20;39.40;;;;;;8428765;28;20024;-53
2024/02/13 09:00:29;;;;;;;0.40;0.40;;;19.30;39.20;;;;;;8428599;28;20043;-53
2024/02/13 09:04:29;;;;;;;0.30;0.30;;;19.30;39.00;;;;;;8428626;28;20051;-53
2024/02/13 09:08:37;;;;;;;1.07;0.43;;;19.30;38.80;;;;;;8410267;28;20035;-53
2024/02/13 09:12:39;;;;;;;0.38;0.38;;;19.40;38.80;;;;;;8427893;28;20306;-54
2024/02/13 09:16:40;;;;;;;0.85;0.50;;;19.40;38.70;;;;;;8428361;28;20070;-54
2024/02/13 09:20:41;;;;;;;0.52;0.40;;;19.40;38.60;;;;;;8427971;28;20024;-54
2024/02/13 09:24:44;;;;;;;1.17;0.40;;;19.40;38.60;;;;;;8428552;28;20035;-54
2024/02/13 09:28:45;;;;;;;0.60;0.52;;;19.40;38.50;;;;;;8401953;28;20036;-55
2024/02/13 09:32:49;;;;;;;0.70;0.70;;;19.40;39.00;;;;;;8394095;28;20037;-55
2024/02/13 09:36:49;;;;;;;0.60;0.35;;;19.30;40.00;;;;;;8393841;28;20483;-55
2024/02/13 09:40:50;;;;;;;0.50;0.33;;;19.20;39.80;;;;;;8393865;28;20032;-55
2024/02/13 09:44:52;;;;;;;1.77;0.55;;;19.30;39.30;;;;;;8393791;28;20286;-55
2024/02/13 09:48:55;;;;;;;0.40;0.40;;;19.30;39.10;;;;;;8375898;28;20037;-55
2024/02/13 09:53:01;;;;;;;0.57;0.57;;;19.30;38.90;;;;;;8393495;28;20525;-55
2024/02/13 09:57:05;;;;;;;0.90;0.50;;;19.40;39.30;;;;;;8393412;28;20035;-56
2024/02/13 10:01:06;;;;;;;0.40;0.40;;;19.40;38.60;;;;;;8393345;28;20034;-55
2024/02/13 10:05:09;;;;;;;0.50;0.50;;;19.40;38.60;;;;;;8393293;28;20037;-55
2024/02/13 10:09:11;;;;;;;0.55;0.40;;;19.40;38.60;;;;;;8393256;28;20033;-55
2024/02/13 10:13:12;;;;;;;0.43;0.43;;;19.40;38.50;;;;;;8414085;28;20052;-55
2024/02/13 10:17:14;;;;;;;0.50;0.50;;;19.40;38.50;;;;;;8426553;28;20040;-55
2024/02/13 10:21:16;;;;;;;0.38;0.30;;;19.30;39.30;;;;;;8426834;28;20135;-55
2024/02/13 10:25:21;;;;;;;0.60;0.50;;;19.20;39.90;;;;;;8408498;28;20036;-56
2024/02/13 10:29:22;;;;;;;0.47;0.40;;;19.20;39.60;;;;;;8426183;28;20089;-55
2024/02/13 10:33:22;;;;;;;0.45;0.45;;;19.30;39.20;;;;;;8426175;28;20111;-55
2024/02/13 10:37:26;;;;;;;1.08;0.40;;;19.30;39.00;;;;;;8426204;28;20092;-55
2024/02/13 10:41:28;;;;;;;1.85;0.40;;;19.30;38.80;;;;;;8425860;28;20047;-56
2024/02/13 10:45:29;;;;;;;0.70;0.60;;;19.30;38.70;;;;;;8431950;28;20451;-57
2024/02/13 10:49:59;;;;;;;0.55;0.50;;;19.30;38.60;;;;;;8415145;28;20031;-57
2024/02/13 10:54:04;;;;;;;0.40;0.30;;;19.40;38.50;;;;;;8412383;28;20382;-57
2024/02/13 10:58:06;;;;;;;0.50;0.40;;;19.40;38.50;;;;;;8432551;28;20516;-57
2024/02/13 11:02:08;;;;;;;0.70;0.50;;;19.40;38.40;;;;;;8414431;28;20032;-55
2024/02/13 11:06:10;;;;;;;0.75;0.43;;;19.30;38.40;;;;;;8414423;28;20032;-56
2024/02/13 11:10:12;;;;;;;0.32;0.32;;;19.30;39.50;;;;;;8432375;28;20032;-55
2024/02/13 11:14:23;;;;;;;0.30;0.30;;;19.20;40.00;;;;;;8432821;28;20055;-56
2024/02/13 11:18:24;;;;;;;0.50;0.50;;;19.20;39.50;;;;;;8432061;28;20065;-57
2024/02/13 11:22:37;;;;;;;0.50;0.40;;;19.20;39.20;;;;;;8431810;28;20081;-57
2024/02/13 11:26:37;;;;;;;0.25;0.25;;;19.30;39.10;;;;;;8413593;28;20080;-57
2024/02/13 11:30:40;;;;;;;0.40;0.40;;;19.30;38.90;;;;;;8413609;28;20093;-55
2024/02/13 11:34:41;;;;;;;0.40;0.40;;;19.30;38.70;;;;;;8431979;28;20383;-56
2024/02/13 11:38:44;;;;;;;;;;;19.30;38.60;;;;;;8431938;28;20021;-57
2024/02/13 11:42:45;;;;;;;0.63;0.30;;;19.30;38.60;;;;;;8431064;28;19911;-56
2024/02/13 11:46:54;;;;;;;1.65;0.70;;;19.30;38.50;;;;;;8431046;28;20439;-55
2024/02/13 11:50:55;;;;;;;0.45;0.35;;;19.30;38.40;;;;;;8431176;28;20119;-57
2024/02/13 11:54:56;;;;;;;1.35;0.68;;;19.30;39.40;;;;;;8429806;28;20048;-57
2024/02/13 11:59:05;;;;;;;1.67;0.30;;;19.20;39.70;;;;;;8430752;28;20025;-56
2024/02/13 12:03:06;;;;;;;0.40;0.40;;;19.10;39.80;;;;;;8430635;28;20504;-56
2024/02/13 12:07:07;;;;;;;0.65;0.40;;;19.20;39.40;;;;;;8430384;28;20359;-57
2024/02/13 12:11:09;;;;;;;0.45;0.30;;;19.20;39.10;;;;;;8430186;28;20048;-57
2024/02/13 12:15:10;;;;;;;0.50;0.40;;;19.20;39.40;;;;;;8430244;28;20035;-57
2024/02/13 12:19:14;;;;;;;0.50;0.30;;;19.20;38.80;;;;;;8430133;28;20032;-56
2024/02/13 12:23:16;;;;;;;0.52;0.40;;;19.20;38.70;;;;;;8429959;28;20057;-57
2024/02/13 12:27:16;;;;;;;0.70;0.50;;;19.20;38.60;;;;;;8429497;28;20493;-56
2024/02/13 12:31:17;;;;;;;0.30;0.30;;;19.30;38.60;;;;;;8429812;28;20476;-55
2024/02/13 12:35:32;;;;;;;0.30;0.30;;;19.30;38.60;;;;;;8429830;28;20032;-56
2024/02/13 12:39:32;;;;;;;0.43;0.43;;;19.30;38.50;;;;;;8429411;28;20478;-56
2024/02/13 12:43:33;;;;;;;0.40;0.40;;;19.30;39.00;;;;;;8429199;28;20466;-56
2024/02/13 12:47:34;;;;;;;0.50;0.40;;;19.10;39.70;;;;;;8429451;28;20314;-55
2024/02/13 12:51:39;;;;;;;0.32;0.32;;;19.10;39.70;;;;;;8428821;28;20404;-54
2024/02/13 12:55:40;;;;;;;0.40;0.40;;;19.10;39.20;;;;;;8428907;28;20032;-57
2024/02/13 12:59:43;;;;;;;0.28;0.28;;;19.20;39.00;;;;;;8410791;28;20489;-54
2024/02/13 13:03:46;;;;;;;0.30;0.30;;;19.20;38.80;;;;;;8428459;28;20442;-55
2024/02/13 13:07:49;;;;;;;0.30;0.30;;;19.20;38.70;;;;;;8428318;28;20047;-54
2024/02/13 13:11:50;;;;;;;0.30;0.28;;;19.20;38.60;;;;;;8428164;28;20097;-55
2024/02/13 13:15:51;;;;;;;0.40;0.40;;;19.30;38.60;;;;;;8428379;28;20115;-54
2024/02/13 13:19:51;;;;;;;0.40;0.40;;;19.20;38.50;;;;;;8428214;28;20028;-55
2024/02/13 13:23:56;;;;;;;0.40;0.40;;;19.30;38.50;;;;;;8428250;28;20066;-54
2024/02/13 13:28:09;;;;;;;0.40;0.35;;;19.30;38.40;;;;;;8409678;28;20274;-55
2024/02/13 13:32:10;;;;;;;0.30;0.30;;;19.30;39.70;;;;;;8427684;28;20043;-55
2024/02/13 13:36:12;;;;;;;0.43;0.30;;;19.20;39.60;;;;;;8427500;28;20090;-56
2024/02/13 13:40:13;;;;;;;0.30;0.30;;;19.10;39.50;;;;;;8428163;28;20032;-55
2024/02/13 13:44:14;;;;;;;0.65;0.40;;;19.20;39.20;;;;;;8427523;28;20071;-55
2024/02/13 13:48:15;;;;;;;0.60;0.52;;;19.20;39.00;;;;;;8427130;28;20531;-55
2024/02/13 13:52:16;;;;;;;0.82;0.63;;;19.20;38.80;;;;;;8427157;28;20032;-55
2024/02/13 13:56:17;;;;;;;0.30;0.30;;;19.30;38.60;;;;;;8427021;28;20071;-55
2024/02/13 14:00:20;;;;;;;0.40;0.40;;;19.20;38.60;;;;;;8426976;28;20039;-55
2024/02/13 14:04:22;;;;;;;0.47;0.30;;;19.20;38.50;;;;;;8426910;28;20111;-55
2024/02/13 14:08:23;;;;;;;0.30;0.30;;;19.30;38.50;;;;;;8427047;28;20046;-54
2024/02/13 14:12:24;;;;;;;0.40;0.40;;;19.20;38.40;;;;;;8426711;28;20509;-54
2024/02/13 14:16:25;;;;;;;0.43;0.30;;;19.20;38.40;;;;;;8426419;28;20504;-55
2024/02/13 14:20:27;;;;;;;;;;;19.20;39.10;;;;;;8408240;28;20059;-53
2024/02/13 14:24:27;;;;;;;0.30;0.30;;;19.00;39.60;;;;;;8426653;28;19912;-53
2024/02/13 14:28:29;;;;;;;0.40;0.40;;;19.10;39.60;;;;;;8426304;28;20500;-55
2024/02/13 14:32:29;;;;;;;0.73;0.30;;;19.10;39.20;;;;;;8426123;28;20040;-54
2024/02/13 14:36:30;;;;;;;0.60;0.40;;;19.10;38.90;;;;;;8408250;28;20036;-54
2024/02/13 14:40:31;;;;;;;0.23;0.23;;;19.20;38.80;;;;;;8426175;28;20029;-53
2024/02/13 14:44:32;;;;;;;0.50;0.50;;;19.20;38.70;;;;;;8426013;28;20071;-54
2024/02/13 14:48:33;;;;;;;0.52;0.40;;;19.20;38.60;;;;;;8407922;28;20055;-53
2024/02/13 14:52:34;;;;;;;0.40;0.30;;;19.20;38.50;;;;;;8426405;28;20101;-53
2024/02/13 14:56:35;;;;;;;0.55;0.30;;;19.20;38.50;;;;;;8425841;28;20035;-54
2024/02/13 15:00:36;;;;;;;0.30;0.30;;;19.20;38.40;;;;;;8426043;28;20404;-55
2024/02/13 15:04:37;;;;;;;0.30;0.30;;;19.20;38.30;;;;;;8407757;28;20554;-54
2024/02/13 15:08:39;;;;;;;0.30;0.30;;;19.20;39.30;;;;;;8425881;28;20394;-55
2024/02/13 15:12:40;;;;;;;0.20;0.20;;;19.10;39.80;;;;;;8425408;28;20533;-54
2024/02/13 15:16:41;;;;;;;0.30;0.30;;;19.10;39.40;;;;;;8425740;28;20394;-54
2024/02/13 15:20:41;;;;;;;0.30;0.30;;;19.10;39.10;;;;;;8425979;28;20044;-54
2024/02/13 15:24:42;;;;;;;0.30;0.30;;;19.10;38.80;;;;;;8425474;28;20033;-53
2024/02/13 15:28:43;;;;;;;0.40;0.35;;;19.20;38.80;;;;;;8426901;28;20119;-54
2024/02/13 15:32:44;;;;;;;0.30;0.30;;;19.20;38.70;;;;;;8431751;28;20490;-52
2024/02/13 15:37:09;;;;;;;0.30;0.30;;;19.20;38.60;;;;;;8413089;28;20039;-55
2024/02/13 15:49:49;;;;;;;0.38;0.30;;;19.20;38.40;;;;;;8431072;28;20035;-54
2024/02/13 15:53:50;;;;;;;0.45;0.20;;;19.20;38.60;;;;;;8431082;28;20081;-54
2024/02/13 15:57:51;;;;;;;0.30;0.28;;;19.10;39.40;;;;;;8430667;28;20374;-53
2024/02/13 16:01:52;;;;;;;0.40;0.38;;;19.10;39.80;;;;;;8430819;28;20032;-53
2024/02/13 16:05:54;;;;;;;0.20;0.20;;;19.10;39.30;;;;;;8430462;28;20032;-54
2024/02/13 16:09:55;;;;;;;0.35;0.30;;;19.10;39.00;;;;;;8430327;28;20068;-55
2024/02/13 16:13:56;;;;;;;0.20;0.20;;;19.20;38.80;;;;;;8412057;28;20040;-56
2024/02/13 16:17:56;;;;;;;0.50;0.30;;;19.20;38.70;;;;;;8395157;28;20282;-55
2024/02/13 16:21:57;;;;;;;0.20;0.20;;;19.20;38.60;;;;;;8429982;28;20036;-54
2024/02/13 16:25:58;;;;;;;0.25;0.20;;;19.20;38.50;;;;;;8411409;28;20322;-55
2024/02/13 16:29:59;;;;;;;0.47;0.40;;;19.20;38.40;;;;;;8429730;28;20040;-56
2024/02/13 16:34:00;;;;;;;0.40;0.40;;;19.20;38.30;;;;;;8429430;28;20036;-56
2024/02/13 16:38:02;;;;;;;0.65;0.30;;;19.20;38.40;;;;;;8429396;28;20108;-57
2024/02/13 16:42:04;;;;;;;0.40;0.40;;;19.20;38.70;;;;;;8427856;28;20024;-56
2024/02/13 16:46:10;;;;;;;0.20;0.20;;;19.10;39.30;;;;;;8429671;28;20040;-54
2024/02/13 16:50:14;;;;;;;0.20;0.20;;;19.10;39.70;;;;;;8429030;28;20067;-56
2024/02/13 16:54:15;;;;;;;0.30;0.30;;;19.10;39.20;;;;;;8428792;28;20038;-56
2024/02/13 16:58:16;;;;;;;0.38;0.38;;;19.10;38.90;;;;;;8428686;28;20521;-55
2024/02/13 17:02:16;;;;;;;0.20;0.20;;;19.10;38.70;;;;;;8429620;28;20377;-56
2024/02/13 17:06:17;;;;;;;0.50;0.45;;;19.20;38.60;;;;;;8428534;28;20317;-56
2024/02/13 17:10:18;;;;;;;0.47;0.40;;;19.20;38.50;;;;;;8428232;28;20043;-55
2024/02/13 17:14:19;;;;;;;1.75;0.30;;;19.20;38.40;;;;;;8406938;28;20044;-56
2024/02/13 17:18:20;;;;;;;0.63;0.40;;;19.20;38.40;;;;;;8417022;28;20496;-54
2024/02/13 17:22:22;;;;;;;;;;;19.20;38.60;;;;;;8404575;28;20458;-55
2024/02/13 17:26:23;;;;;;;;;;;19.20;38.80;;;;;;8410642;28;20010;-55
2024/02/13 17:30:23;;;;;;;1.60;0.40;;;19.30;39.50;;;;;;8399275;28;19927;-54
2024/02/13 17:34:25;;;;;;;1.85;0.57;;;19.20;40.50;;;;;;8406045;28;20032;-56
2024/02/13 17:38:27;;;;;;;2.75;0.57;;;19.20;40.50;;;;;;8407830;28;20529;-59
2024/02/13 17:42:28;;;;;;;3.05;0.60;;;19.30;40.20;;;;;;8402649;28;20496;-63
2024/02/13 17:46:28;;;;;;;1.77;0.60;;;19.40;40.40;;;;;;8409071;28;20379;-56
2024/02/13 17:50:29;;;;;;;2.00;0.80;;;19.50;40.20;;;;;;8419879;28;20068;-55
2024/02/13 17:54:31;;;;;;;1.38;0.70;;;19.50;40.30;;;;;;8419808;28;20036;-58
2024/02/13 17:58:32;;;;;;;1.95;0.80;;;19.50;40.20;;;;;;8406578;28;20028;-55
2024/02/13 18:02:33;;;;;;;;;;;19.60;39.80;;;;;;8423167;28;20482;-63
2024/02/13 18:06:33;;;;;;;0.87;0.50;;;19.60;39.60;;;;;;8425725;28;20273;-51
2024/02/13 18:10:34;;;;;;;0.50;0.50;;;19.70;39.70;;;;;;8424165;28;20135;-58
2024/02/13 18:14:37;;;;;;;2.35;0.65;;;19.70;39.70;;;;;;8402610;28;20091;-57
2024/02/13 18:18:38;;;;;;;4.15;0.77;;;19.70;40.60;;;;;;8412507;28;20043;-58
2024/02/13 18:22:39;;;;;;;3.65;0.90;;;19.60;41.40;;;;;;8424499;28;20032;-57
2024/02/13 18:26:39;;;;;;;2.17;0.80;;;19.60;41.00;;;;;;8421652;28;20508;-59
2024/02/13 18:30:41;;;;;;;2.90;0.85;;;19.70;40.90;;;;;;8404196;28;20045;-59
2024/02/13 18:34:44;;;;;;;2.22;0.55;;;19.70;40.70;;;;;;8391753;28;20097;-59
2024/02/13 18:38:45;;;;;;;1.38;0.70;;;19.70;40.40;;;;;;8398151;28;20029;-59
2024/02/13 18:42:46;;;;;;;1.90;0.60;;;19.70;40.30;;;;;;8404827;28;20126;-61
2024/02/13 18:46:47;;;;;;;5.25;0.80;;;19.70;40.30;;;;;;8398792;28;20040;-54
2024/02/13 18:50:48;;;;;;;9.43;1.83;;;19.80;40.10;;;;;;8400515;28;21843;-54
2024/02/13 18:54:48;;;;;;;;;;;19.80;40.50;;;;;;8401074;28;20032;-51
2024/02/13 18:58:49;;;;;;;7.53;1.40;;;19.80;40.50;;;;;;8395469;28;20027;-50
2024/02/13 19:02:52;;;;;;;1.98;1.23;;;19.80;40.40;;;;;;8402896;28;20122;-59
2024/02/13 19:06:53;;;;;;;5.68;1.45;;;19.70;41.70;;;;;;8398470;28;20553;-58
2024/02/13 19:10:56;;;;;;;;;;;19.70;42.30;;;;;;8414127;28;20032;-58
2024/02/13 19:14:57;;;;;;;4.45;1.05;;;19.70;42.30;;;;;;8431117;28;19916;-58
2024/02/13 19:19:03;;;;;;;4.82;1.30;;;19.80;41.70;;;;;;8430340;28;20039;-58
2024/02/13 19:23:05;;;;;;;6.97;1.05;;;19.80;41.40;;;;;;8420344;28;20036;-50
2024/02/13 19:27:06;;;;;;;6.18;1.40;;;19.90;42.00;;;;;;8430407;28;20043;-52
2024/02/13 19:31:08;;;;;;;7.05;1.45;;;19.90;41.50;;;;;;8427725;28;20040;-47
2024/02/13 19:35:09;;;;;;;15.82;2.05;;;20.00;40.90;;;;;;8418446;28;20533;-50
2024/02/13 19:39:12;;;;;;;7.03;1.55;;;20.10;42.40;;;;;;8407278;28;20450;-54
2024/02/13 19:43:13;;;;;;;5.40;1.10;;;20.10;42.50;;;;;;8407886;28;20043;-55
2024/02/13 19:47:13;;;;;;;8.55;1.50;;;20.10;42.50;;;;;;8396931;28;20047;-51
2024/02/13 19:51:15;;;;;;;3.55;1.25;;;20.10;42.50;;;;;;8409268;28;20028;-53
2024/02/13 19:55:16;;;;;;;;;;;20.10;43.70;;;;;;8402469;28;20066;-53
2024/02/13 19:59:16;;;;;;;11.07;1.70;;;20.00;43.90;;;;;;8388516;28;19911;-53
2024/02/13 20:03:17;;;;;;;10.95;1.30;;;20.10;43.80;;;;;;8412874;28;20103;-53
2024/02/13 20:07:18;;;;;;;4.75;1.63;;;20.10;43.30;;;;;;8426127;28;20028;-53
2024/02/13 20:11:20;;;;;;;8.85;1.67;;;20.10;43.80;;;;;;8412869;28;20572;-52
2024/02/13 20:15:21;;;;;;;5.43;1.10;;;20.10;42.70;;;;;;8395301;28;20032;-52
2024/02/13 20:19:21;;;;;;;9.60;1.40;;;20.10;42.80;;;;;;8411837;28;20025;-54
2024/02/13 20:23:22;;;;;;;12.85;1.85;;;20.10;42.60;;;;;;8405611;28;20063;-55
2024/02/13 20:27:23;;;;;;;4.60;1.35;;;20.20;42.50;;;;;;8420898;28;20107;-53
2024/02/13 20:31:24;;;;;;;9.50;1.95;;;20.10;42.00;;;;;;8397750;28;20097;-54
2024/02/13 20:35:25;;;;;;;3.28;1.30;;;20.10;42.10;;;;;;8398101;28;20033;-49
2024/02/13 20:39:26;;;;;;;4.90;1.33;;;20.10;41.90;;;;;;8398486;28;20032;-55
2024/02/13 20:43:26;;;;;;;7.85;1.50;;;20.00;43.00;;;;;;8427215;28;20872;-55
2024/02/13 20:47:28;;;;;;;4.80;1.77;;;19.90;43.80;;;;;;8431090;28;20448;-55
2024/02/13 20:51:34;;;;;;;2.60;0.93;;;19.90;43.10;;;;;;8412902;28;20036;-55
2024/02/13 20:55:34;;;;;;;8.82;0.90;;;20.00;42.50;;;;;;8431284;28;20036;-55
2024/02/13 20:59:35;;;;;;;8.35;1.25;;;20.00;42.20;;;;;;8430777;28;20035;-55
2024/02/13 21:03:36;;;;;;;5.25;1.88;;;20.00;41.80;;;;;;8430971;28;20024;-55
2024/02/13 21:07:37;;;;;;;5.50;1.42;;;20.10;41.80;;;;;;8431111;28;20030;-54
2024/02/13 21:11:39;;;;;;;10.13;1.35;;;20.10;41.90;;;;;;8430594;28;20044;-54
2024/02/13 21:15:40;;;;;;;4.20;1.38;;;20.10;41.50;;;;;;8430521;28;20102;-54